Terminal Aerodrome Forecast
Issued by NWS

Home | Current Version | Previous Version | Text Only | Print | Product List | Glossary On
Versions: 1 2 3 4 5 6 7 8 9 10 11 12 13 14 15 16 17 18 19 20 21 22 23 24 25 26 27 28 29 30 31 32 33 34 35 36 37 38 39 40
000
FTUS45 KGJT 010601 AAA
TAFEGE
TAF AMD
KEGE 010601Z 0106/0206 08005KT P6SM VCSH SCT050 BKN080
      TEMPO 0106/0108 -SHRA BKN050
     FM010800 08004KT P6SM BKN080
     FM011200 VRB03KT P6SM VCSH BKN060
     FM011800 26008KT P6SM -RA SCT025 BKN040
     FM020200 10004KT P6SM -RASN SCT035 BKN050
      AMD LTD TO CLD VIS AND WIND TIL 011300=

USA.gov is the U.S. government's official web portal to all federal, state and local government web resources and services.